Rina Amoretti — IBRR — position and weather

sailwx.info

Track history (hours):
 
Tides and Currents Weather Stations Pressure Air Temp Water Temp Dewpoint Dewpoint Depression Visibility Wind Speed Wind Dir Waves Ship Positions

Rina Amoretti

Last reported at 2016-Sep-28 21:21 UTC. Time now 2016-Oct-01 01:39 UTC.
Position N 38°56' E 015°19'.

Length 120 m; draft 7.1 m.

Type: Ship (hazmat cat A). MMSI: 247197000.

Date/timePositionNaut miles runAvg speedWind from/ knotsBaromVisibWave heightAir tempDewpointWater temp
2016-Sep-28 21:21N 38°56' E 015°19'2614.1
2016-Sep-28 19:31N 38°33' E 015°33'3612.3
2016-Sep-28 16:34N 37°57' E 015°32'1414.0
2016-Sep-28 15:33N 37°43' E 015°28'3 0.1
2016-Sep-27 10:24N 37°46' E 015°28'87 8.9
2016-Sep-27 00:33N 38°10' E 013°42'13 3.2
2016-Sep-26 20:33N 38°06' E 013°26'0 0.0
2016-Sep-26 19:33N 38°06' E 013°26'0 0.0
2016-Sep-26 15:33N 38°06' E 013°26'0 0.0
2016-Sep-26 13:33N 38°06' E 013°26'0 0.0
2016-Sep-26 11:32N 38°06' E 013°26'0 0.0
2016-Sep-26 08:32N 38°06' E 013°26'1 0.2
2016-Sep-26 02:32N 38°07' E 013°26'0 0.1
2016-Sep-26 01:32N 38°07' E 013°26'0 0.0
2016-Sep-26 00:32N 38°07' E 013°26'0 0.0
2016-Sep-25 21:32N 38°07' E 013°26'0 0.0
2016-Sep-25 17:29N 38°07' E 013°26'0 0.0
2016-Sep-25 16:32N 38°07' E 013°26'0 0.0
2016-Sep-25 15:32N 38°07' E 013°26'0 0.0
2016-Sep-25 14:29N 38°07' E 013°26'0 0.1
2016-Sep-25 12:32N 38°07' E 013°26'0 0.1
2016-Sep-25 11:32N 38°07' E 013°26'0 0.0
2016-Sep-25 10:32N 38°07' E 013°26'0 0.0
2016-Sep-25 09:32N 38°07' E 013°26'0 0.0
2016-Sep-25 07:32N 38°07' E 013°26'0 0.0
2016-Sep-25 04:32N 38°07' E 013°26'1 0.3
2016-Sep-25 00:33N 38°08' E 013°28'2613.2
2016-Sep-24 22:33N 38°12' E 014°01'1413.4
2016-Sep-24 21:33N 38°13' E 014°18'2814.0
2016-Sep-24 19:33N 38°16' E 014°53'1414.1
2016-Sep-24 18:33N 38°18' E 015°11'1413.7
2016-Sep-24 17:33N 38°19' E 015°29'1110.6
2016-Sep-24 16:33N 38°16' E 015°41'2713.5
2016-Sep-24 14:33N 37°50' E 015°31'2713.6
2016-Sep-24 12:32N 37°23' E 015°21'  
2016-Sep-22 03:33N 37°45' E 015°28'4113.6
2016-Sep-22 00:33N 38°25' E 015°37'1514.6
2016-Sep-21 23:33N 38°38' E 015°29'1514.4
2016-Sep-21 22:31N 38°52' E 015°22'6 0.1
2016-Sep-20 02:33N 38°47' E 015°25'3411.2
2016-Sep-19 23:33N 38°15' E 015°39'  
Track history (hours):
 
Tides and Currents Weather Stations Pressure Air Temp Water Temp Dewpoint Dewpoint Depression Visibility Wind Speed Wind Dir Waves Ship Positions

Rina Amoretti

Last reported at 2016-Sep-28 21:21 UTC. Time now 2016-Oct-01 01:39 UTC.
Position N 38°56' E 015°19'.

Length 120 m; draft 7.1 m.

Type: Ship (hazmat cat A). MMSI: 247197000.

Date/timePositionNaut miles runAvg speedWind from/ knotsBaromVisibWave heightAir tempDewpointWater temp
2016-Sep-28 21:21N 38°56' E 015°19'2614.1
2016-Sep-28 19:31N 38°33' E 015°33'3612.3
2016-Sep-28 16:34N 37°57' E 015°32'1414.0
2016-Sep-28 15:33N 37°43' E 015°28'3 0.1
2016-Sep-27 10:24N 37°46' E 015°28'87 8.9
2016-Sep-27 00:33N 38°10' E 013°42'13 3.2
2016-Sep-26 20:33N 38°06' E 013°26'0 0.0
2016-Sep-26 19:33N 38°06' E 013°26'0 0.0
2016-Sep-26 15:33N 38°06' E 013°26'0 0.0
2016-Sep-26 13:33N 38°06' E 013°26'0 0.0
2016-Sep-26 11:32N 38°06' E 013°26'0 0.0
2016-Sep-26 08:32N 38°06' E 013°26'1 0.2
2016-Sep-26 02:32N 38°07' E 013°26'0 0.1
2016-Sep-26 01:32N 38°07' E 013°26'0 0.0
2016-Sep-26 00:32N 38°07' E 013°26'0 0.0
2016-Sep-25 21:32N 38°07' E 013°26'0 0.0
2016-Sep-25 17:29N 38°07' E 013°26'0 0.0
2016-Sep-25 16:32N 38°07' E 013°26'0 0.0
2016-Sep-25 15:32N 38°07' E 013°26'0 0.0
2016-Sep-25 14:29N 38°07' E 013°26'0 0.1
2016-Sep-25 12:32N 38°07' E 013°26'0 0.1
2016-Sep-25 11:32N 38°07' E 013°26'0 0.0
2016-Sep-25 10:32N 38°07' E 013°26'0 0.0
2016-Sep-25 09:32N 38°07' E 013°26'0 0.0
2016-Sep-25 07:32N 38°07' E 013°26'0 0.0
2016-Sep-25 04:32N 38°07' E 013°26'1 0.3
2016-Sep-25 00:33N 38°08' E 013°28'2613.2
2016-Sep-24 22:33N 38°12' E 014°01'1413.4
2016-Sep-24 21:33N 38°13' E 014°18'2814.0
2016-Sep-24 19:33N 38°16' E 014°53'1414.1
2016-Sep-24 18:33N 38°18' E 015°11'1413.7
2016-Sep-24 17:33N 38°19' E 015°29'1110.6
2016-Sep-24 16:33N 38°16' E 015°41'2713.5
2016-Sep-24 14:33N 37°50' E 015°31'2713.6
2016-Sep-24 12:32N 37°23' E 015°21'  
2016-Sep-22 03:33N 37°45' E 015°28'4113.6
2016-Sep-22 00:33N 38°25' E 015°37'1514.6
2016-Sep-21 23:33N 38°38' E 015°29'1514.4
2016-Sep-21 22:31N 38°52' E 015°22'6 0.1
2016-Sep-20 02:33N 38°47' E 015°25'3411.2
2016-Sep-19 23:33N 38°15' E 015°39'  

Dump ship's entire track history